createdAt,value
2016-04-02T00:00:29.642Z,0
2016-04-02T00:01:29.661Z,0
2016-04-02T00:02:29.663Z,0
2016-04-02T00:03:29.666Z,0
2016-04-02T00:04:29.685Z,0
2016-04-02T00:05:29.687Z,0
2016-04-02T00:06:29.690Z,0
2016-04-02T00:07:29.693Z,0
2016-04-02T00:08:29.710Z,0
2016-04-02T00:09:29.713Z,0
2016-04-02T00:10:29.715Z,0
2016-04-02T00:11:29.719Z,0
2016-04-02T00:12:29.737Z,0
2016-04-02T00:13:29.740Z,0
2016-04-02T00:14:29.727Z,0
2016-04-02T00:15:29.729Z,0
2016-04-02T00:16:29.748Z,0
2016-04-02T00:17:29.767Z,0
2016-04-02T00:18:29.784Z,0
2016-04-02T00:19:29.787Z,0
2016-04-02T00:20:29.789Z,0
2016-04-02T00:21:29.762Z,0
2016-04-02T00:22:29.795Z,0
2016-04-02T00:23:29.783Z,0
2016-04-02T00:24:29.770Z,0
2016-04-02T00:25:29.835Z,0
2016-04-02T00:26:29.853Z,0
2016-04-02T00:27:29.841Z,0
2016-04-02T00:28:29.844Z,0
2016-04-02T00:29:29.814Z,0
2016-04-02T00:30:29.832Z,0
2016-04-02T00:31:29.835Z,0
2016-04-02T00:32:29.885Z,0
2016-04-02T00:33:29.887Z,0
2016-04-02T00:34:29.874Z,0
2016-04-02T00:35:29.882Z,0
2016-04-02T00:36:29.854Z,0
2016-04-02T00:37:29.871Z,0
2016-04-02T00:38:29.874Z,0
2016-04-02T00:39:29.893Z,0
2016-04-02T00:40:29.942Z,0
2016-04-02T00:41:29.915Z,0
2016-04-02T00:42:29.932Z,0
2016-04-02T00:43:29.903Z,0
2016-04-02T00:44:29.907Z,0
2016-04-02T00:45:29.925Z,0
2016-04-02T00:46:29.928Z,0
2016-04-02T00:47:29.961Z,0
2016-04-02T00:48:29.933Z,0
2016-04-02T00:49:29.967Z,0
2016-04-02T00:50:29.953Z,0
2016-04-02T00:51:29.956Z,0
2016-04-02T00:52:29.959Z,0
2016-04-02T00:53:29.961Z,0
2016-04-02T00:54:29.964Z,0
2016-04-02T00:55:29.967Z,0
2016-04-02T00:56:30.032Z,0
2016-04-02T00:57:30.019Z,0
2016-04-02T00:58:30.052Z,0
2016-04-02T00:59:30.010Z,0
2016-04-02T01:00:29.996Z,0
2016-04-02T01:01:30.046Z,0
2016-04-02T01:02:30.049Z,0
2016-04-02T01:03:30.051Z,0
2016-04-02T01:04:30.069Z,0
2016-04-02T01:05:30.057Z,0
2016-04-02T01:06:30.060Z,0
2016-04-02T01:07:30.077Z,0
2016-04-02T01:08:30.095Z,0
2016-04-02T01:09:30.068Z,0
2016-04-02T01:10:30.071Z,0
2016-04-02T01:11:30.073Z,0
2016-04-02T01:12:30.107Z,0
2016-04-02T01:13:30.078Z,0
2016-04-02T01:14:30.143Z,0
2016-04-02T01:15:30.098Z,0
2016-04-02T01:16:30.149Z,0
2016-04-02T01:17:30.120Z,0
2016-04-02T01:18:30.169Z,0
2016-04-02T01:19:30.172Z,0
2016-04-02T01:20:30.191Z,0
2016-04-02T01:21:30.147Z,0
2016-04-02T01:22:30.150Z,0
2016-04-02T01:23:30.246Z,0
2016-04-02T01:24:30.170Z,0
2016-04-02T01:25:30.172Z,0
2016-04-02T01:26:30.175Z,0
2016-04-02T01:27:30.210Z,0
2016-04-02T01:28:30.181Z,0
2016-04-02T01:29:30.231Z,0
2016-04-02T01:30:30.186Z,0
2016-04-02T01:31:30.252Z,0
2016-04-02T01:32:30.208Z,0
2016-04-02T01:33:30.226Z,0
2016-04-02T01:34:30.244Z,0
2016-04-02T01:35:30.232Z,0
2016-04-02T01:36:30.249Z,0
2016-04-02T01:37:30.268Z,0
2016-04-02T01:38:30.271Z,0
2016-04-02T01:39:30.257Z,0
2016-04-02T01:40:30.307Z,0
2016-04-02T01:41:30.263Z,0
2016-04-02T01:42:30.312Z,0
2016-04-02T01:43:30.284Z,0
2016-04-02T01:44:30.287Z,0
2016-04-02T01:45:30.320Z,0
2016-04-02T01:46:30.151Z,0
2016-04-02T01:47:30.326Z,0
2016-04-02T01:48:30.312Z,0
2016-04-02T01:49:30.315Z,0
2016-04-02T01:50:30.302Z,0
2016-04-02T01:51:30.320Z,0
2016-04-02T01:52:30.323Z,0
2016-04-02T01:53:30.358Z,0
2016-04-02T01:54:30.344Z,0
2016-04-02T01:55:30.378Z,0
2016-04-02T01:56:30.343Z,0
2016-04-02T01:57:30.350Z,0
2016-04-02T01:58:30.388Z,0
2016-04-02T01:59:30.363Z,0
2016-04-02T02:00:30.354Z,0
2016-04-02T02:01:30.334Z,0
2016-04-02T02:02:30.364Z,0
2016-04-02T02:03:30.347Z,0
2016-04-02T02:04:30.329Z,0
2016-04-02T02:05:30.328Z,0
2016-04-02T02:06:30.328Z,0
2016-04-02T02:07:30.189Z,0
2016-04-02T02:08:30.371Z,0
2016-04-02T02:09:30.357Z,0
2016-04-02T02:10:30.342Z,0
2016-04-02T02:11:30.360Z,0
2016-04-02T02:12:30.222Z,0
2016-04-02T02:13:30.396Z,0
2016-04-02T02:14:30.375Z,0
2016-04-02T02:15:30.440Z,0
2016-04-02T02:16:30.381Z,0
2016-04-02T02:17:30.398Z,0
2016-04-02T02:18:30.400Z,0
2016-04-02T02:19:30.402Z,0
2016-04-02T02:20:30.420Z,0
2016-04-02T02:21:30.407Z,0
2016-04-02T02:22:30.425Z,0
2016-04-02T02:23:30.443Z,0
2016-04-02T02:24:30.415Z,0
2016-04-02T02:25:30.464Z,0
2016-04-02T02:26:30.451Z,0
2016-04-02T02:27:30.487Z,0
2016-04-02T02:28:30.442Z,0
2016-04-02T02:29:30.476Z,0
2016-04-02T02:30:30.462Z,0
2016-04-02T02:31:30.497Z,0
2016-04-02T02:32:30.468Z,0
2016-04-02T02:33:30.487Z,0
2016-04-02T02:34:30.506Z,0
2016-04-02T02:35:30.476Z,0
2016-04-02T02:36:30.511Z,0
2016-04-02T02:37:30.498Z,0
2016-04-02T02:38:30.531Z,0
2016-04-02T02:39:30.503Z,0
2016-04-02T02:40:30.536Z,0
2016-04-02T02:41:30.540Z,0
2016-04-02T02:42:30.574Z,0
2016-04-02T02:43:30.530Z,0
2016-04-02T02:44:30.595Z,0
2016-04-02T02:45:30.550Z,0
2016-04-02T02:46:30.585Z,0
2016-04-02T02:47:30.572Z,0
2016-04-02T02:48:30.590Z,0
2016-04-02T02:49:30.577Z,0
2016-04-02T02:50:30.595Z,0
2016-04-02T02:51:30.613Z,0
2016-04-02T02:52:30.585Z,0
2016-04-02T02:53:30.634Z,0
2016-04-02T02:54:30.590Z,0
2016-04-02T02:55:30.624Z,0
2016-04-02T02:56:30.612Z,0
2016-04-02T02:57:30.646Z,0
2016-04-02T02:58:30.632Z,0
2016-04-02T02:59:30.666Z,0
2016-04-02T03:00:30.637Z,0
2016-04-02T03:01:30.671Z,0
2016-04-02T03:02:30.518Z,0
2016-04-02T03:03:30.661Z,0
2016-04-02T03:04:30.665Z,0
2016-04-02T03:05:30.667Z,0
2016-04-02T03:06:30.701Z,0
2016-04-02T03:07:30.688Z,0
2016-04-02T03:08:30.707Z,0
2016-04-02T03:09:30.693Z,0
2016-04-02T03:10:30.728Z,0
2016-04-02T03:11:30.714Z,0
2016-04-02T03:12:30.733Z,0
2016-04-02T03:13:30.720Z,0
2016-04-02T03:14:30.769Z,0
2016-04-02T03:15:30.741Z,0
2016-04-02T03:16:30.758Z,0
2016-04-02T03:17:30.746Z,0
2016-04-02T03:18:30.749Z,0
2016-04-02T03:19:30.752Z,0
2016-04-02T03:20:30.770Z,0
2016-04-02T03:21:30.772Z,0
2016-04-02T03:22:30.791Z,0
2016-04-02T03:23:30.824Z,0
2016-04-02T03:24:30.780Z,0
2016-04-02T03:25:30.799Z,0
2016-04-02T03:26:30.801Z,0
2016-04-02T03:27:30.804Z,0
2016-04-02T03:28:30.838Z,0
2016-04-02T03:29:30.966Z,0
2016-04-02T03:30:30.829Z,0
2016-04-02T03:31:30.831Z,0
2016-04-02T03:32:30.834Z,0
2016-04-02T03:33:30.836Z,0
2016-04-02T03:34:30.854Z,0
2016-04-02T03:35:30.857Z,0
2016-04-02T03:36:30.860Z,0
2016-04-02T03:37:30.878Z,0
2016-04-02T03:38:30.865Z,0
2016-04-02T03:39:30.867Z,0
2016-04-02T03:40:30.901Z,0
2016-04-02T03:41:30.889Z,0
2016-04-02T03:42:30.892Z,0
2016-04-02T03:43:30.910Z,0
2016-04-02T03:44:30.897Z,0
2016-04-02T03:45:30.915Z,0
2016-04-02T03:46:30.934Z,0
2016-04-02T03:47:30.920Z,0
2016-04-02T03:48:30.939Z,0
2016-04-02T03:49:30.941Z,0
2016-04-02T03:50:30.944Z,0
2016-04-02T03:51:30.946Z,0
2016-04-02T03:52:30.965Z,0
2016-04-02T03:53:30.952Z,0
2016-04-02T03:54:30.970Z,0
2016-04-02T03:55:30.973Z,0
2016-04-02T03:56:30.976Z,0
2016-04-02T03:57:31.010Z,0
2016-04-02T03:58:30.982Z,0
2016-04-02T03:59:30.999Z,0
2016-04-02T04:00:31.002Z,0
2016-04-02T04:01:31.004Z,0
2016-04-02T04:02:31.023Z,0
2016-04-02T04:03:31.026Z,0
2016-04-02T04:04:31.029Z,0
2016-04-02T04:05:31.032Z,0
2016-04-02T04:06:31.051Z,0
2016-04-02T04:07:31.037Z,0
2016-04-02T04:08:31.040Z,0
2016-04-02T04:09:31.074Z,0
2016-04-02T04:10:31.076Z,0
2016-04-02T04:11:31.079Z,0
2016-04-02T04:12:31.081Z,0
2016-04-02T04:13:31.084Z,0
2016-04-02T04:14:31.103Z,0
2016-04-02T04:15:31.089Z,0
2016-04-02T04:16:31.108Z,0
2016-04-02T04:17:31.125Z,0
2016-04-02T04:18:31.113Z,0
2016-04-02T04:19:31.131Z,0
2016-04-02T04:20:31.119Z,0
2016-04-02T04:21:31.137Z,0
2016-04-02T04:22:31.155Z,0
2016-04-02T04:23:31.142Z,0
2016-04-02T04:24:31.161Z,0
2016-04-02T04:25:31.147Z,0
2016-04-02T04:26:31.166Z,0
2016-04-02T04:27:31.168Z,0
2016-04-02T04:28:31.202Z,0
2016-04-02T04:29:31.189Z,0
2016-04-02T04:30:31.176Z,0
2016-04-02T04:31:31.210Z,0
2016-04-02T04:32:31.198Z,0
2016-04-02T04:33:31.231Z,0
2016-04-02T04:34:31.204Z,0
2016-04-02T04:35:31.206Z,0
2016-04-02T04:36:31.224Z,0
2016-04-02T04:37:31.227Z,0
2016-04-02T04:38:31.229Z,0
2016-04-02T04:39:31.248Z,0
2016-04-02T04:40:31.297Z,0
2016-04-02T04:41:31.253Z,0
2016-04-02T04:42:31.287Z,0
2016-04-02T04:43:31.259Z,0
2016-04-02T04:44:31.293Z,0
2016-04-02T04:45:31.280Z,0
2016-04-02T04:46:31.283Z,0
2016-04-02T04:47:31.301Z,0
2016-04-02T04:48:31.288Z,0
2016-04-02T04:49:31.291Z,0
2016-04-02T04:50:31.308Z,0
2016-04-02T04:51:31.311Z,0
2016-04-02T04:52:31.330Z,0
2016-04-02T04:53:31.332Z,0
2016-04-02T04:54:31.335Z,0
2016-04-02T04:55:31.338Z,0
2016-04-02T04:56:31.340Z,0
2016-04-02T04:57:31.344Z,0
2016-04-02T04:58:31.377Z,0
2016-04-02T04:59:31.364Z,0
2016-04-02T05:00:31.367Z,0
2016-04-02T05:01:31.385Z,0
2016-04-02T05:02:31.451Z,0
2016-04-02T05:03:31.390Z,0
2016-04-02T05:04:31.393Z,0
2016-04-02T05:05:31.412Z,0
2016-04-02T05:06:31.398Z,0
2016-04-02T05:07:31.417Z,0
2016-04-02T05:08:31.434Z,0
2016-04-02T05:09:31.406Z,0
2016-04-02T05:10:31.425Z,0
2016-04-02T05:11:31.442Z,0
2016-04-02T05:12:31.446Z,0
2016-04-02T05:13:31.464Z,0
2016-04-02T05:14:31.467Z,0
2016-04-02T05:15:31.454Z,0
2016-04-02T05:16:31.472Z,0
2016-04-02T05:17:31.475Z,0
2016-04-02T05:18:31.461Z,0
2016-04-02T05:19:31.480Z,5
2016-04-02T05:20:31.483Z,5
2016-04-02T05:21:31.502Z,5
2016-04-02T05:22:31.505Z,5
2016-04-02T05:23:31.508Z,5
2016-04-02T05:24:31.510Z,5
2016-04-02T05:25:31.528Z,5
2016-04-02T05:26:31.515Z,5
2016-04-02T05:27:31.549Z,5
2016-04-02T05:28:31.552Z,5
2016-04-02T05:29:31.538Z,5
2016-04-02T05:30:31.541Z,5
2016-04-02T05:31:31.559Z,5
2016-04-02T05:32:31.562Z,5
2016-04-02T05:33:31.565Z,5
2016-04-02T05:34:31.567Z,5
2016-04-02T05:35:31.570Z,5
2016-04-02T05:36:31.588Z,5
2016-04-02T05:37:31.607Z,10
2016-04-02T05:38:31.594Z,10
2016-04-02T05:39:31.612Z,5
2016-04-02T05:40:31.615Z,5
2016-04-02T05:41:31.601Z,5
2016-04-02T05:42:31.620Z,5
2016-04-02T05:43:31.623Z,5
2016-04-02T05:44:31.625Z,5
2016-04-02T05:45:31.644Z,5
2016-04-02T05:46:31.646Z,5
2016-04-02T05:47:31.649Z,5
2016-04-02T05:48:31.667Z,5
2016-04-02T05:49:31.670Z,5
2016-04-02T05:50:31.673Z,5
2016-04-02T05:51:31.661Z,5
2016-04-02T05:52:31.678Z,5
2016-04-02T05:53:31.681Z,5
2016-04-02T05:54:31.700Z,5
2016-04-02T05:55:31.686Z,5
2016-04-02T05:56:31.705Z,5
2016-04-02T05:57:31.707Z,5
2016-04-02T05:58:31.710Z,5
2016-04-02T05:59:31.729Z,5
2016-04-02T06:00:31.732Z,5
2016-04-02T06:01:31.735Z,5
2016-04-02T06:02:31.721Z,5
2016-04-02T06:03:31.740Z,5
2016-04-02T06:04:31.758Z,5
2016-04-02T06:05:31.745Z,5
2016-04-02T06:06:31.779Z,10
2016-04-02T06:07:31.765Z,10
2016-04-02T06:08:31.784Z,10
2016-04-02T06:09:31.771Z,10
2016-04-02T06:10:31.804Z,10
2016-04-02T06:11:31.792Z,10
2016-04-02T06:12:31.825Z,10
2016-04-02T06:13:31.797Z,10
2016-04-02T06:14:31.831Z,15
2016-04-02T06:15:31.818Z,15
2016-04-02T06:16:31.806Z,15
2016-04-02T06:17:31.840Z,15
2016-04-02T06:18:31.826Z,15
2016-04-02T06:19:31.845Z,15
2016-04-02T06:20:31.863Z,15
2016-04-02T06:21:31.694Z,15
2016-04-02T06:22:31.884Z,15
2016-04-02T06:23:31.871Z,20
2016-04-02T06:24:31.858Z,20
2016-04-02T06:25:31.891Z,25
2016-04-02T06:26:31.879Z,25
2016-04-02T06:27:31.929Z,25
2016-04-02T06:28:31.899Z,25
2016-04-02T06:29:31.918Z,20
2016-04-02T06:30:31.937Z,20
2016-04-02T06:31:31.923Z,25
2016-04-02T06:32:31.911Z,25
2016-04-02T06:33:31.945Z,25
2016-04-02T06:34:31.916Z,20
2016-04-02T06:35:31.934Z,20
2016-04-02T06:36:31.921Z,20
2016-04-02T06:37:31.940Z,20
2016-04-02T06:38:31.943Z,25
2016-04-02T06:39:31.946Z,25
2016-04-02T06:40:31.965Z,25
2016-04-02T06:41:31.951Z,30
2016-04-02T06:42:31.970Z,35
2016-04-02T06:43:31.988Z,35
2016-04-02T06:44:31.975Z,30
2016-04-02T06:45:31.978Z,30
2016-04-02T06:46:31.995Z,30
2016-04-02T06:47:32.014Z,30
2016-04-02T06:48:32.001Z,30
2016-04-02T06:49:32.003Z,30
2016-04-02T06:50:32.022Z,30
2016-04-02T06:51:32.039Z,30
2016-04-02T06:52:32.058Z,30
2016-04-02T06:53:32.045Z,30
2016-04-02T06:54:32.064Z,35
2016-04-02T06:55:32.051Z,35
2016-04-02T06:56:32.100Z,40
2016-04-02T06:57:32.056Z,40
2016-04-02T06:58:32.105Z,45
2016-04-02T06:59:32.077Z,55
2016-04-02T07:00:32.080Z,55
2016-04-02T07:01:32.082Z,60
2016-04-02T07:02:32.101Z,60
2016-04-02T07:03:32.087Z,65
2016-04-02T07:04:32.090Z,80
2016-04-02T07:05:32.109Z,90
2016-04-02T07:06:32.127Z,95
2016-04-02T07:07:32.004Z,100
2016-04-02T07:08:32.133Z,100
2016-04-02T07:09:32.151Z,100
2016-04-02T07:10:32.154Z,100
2016-04-02T07:11:32.157Z,100
2016-04-02T07:12:32.175Z,95
2016-04-02T07:13:32.162Z,85
2016-04-02T07:14:32.212Z,85
2016-04-02T07:15:32.183Z,80
2016-04-02T07:16:32.186Z,85
2016-04-02T07:17:32.189Z,85
2016-04-02T07:18:32.191Z,95
2016-04-02T07:19:32.194Z,100
2016-04-02T07:20:32.212Z,110
2016-04-02T07:21:32.214Z,115
2016-04-02T07:22:32.233Z,120
2016-04-02T07:23:32.220Z,125
2016-04-02T07:24:32.222Z,130
2016-04-02T07:25:32.241Z,125
2016-04-02T07:26:32.243Z,125
2016-04-02T07:27:32.246Z,120
2016-04-02T07:28:32.280Z,120
2016-04-02T07:29:32.252Z,120
2016-04-02T07:30:32.286Z,115
2016-04-02T07:31:32.272Z,115
2016-04-02T07:32:32.275Z,110
2016-04-02T07:33:32.293Z,110
2016-04-02T07:34:32.280Z,100
2016-04-02T07:35:32.283Z,95
2016-04-02T07:36:32.302Z,95
2016-04-02T07:37:32.320Z,90
2016-04-02T07:38:32.323Z,90
2016-04-02T07:39:32.325Z,90
2016-04-02T07:40:32.187Z,90
2016-04-02T07:41:32.174Z,95
2016-04-02T07:42:32.349Z,95
2016-04-02T07:43:32.368Z,95
2016-04-02T07:44:32.370Z,95
2016-04-02T07:45:32.373Z,95
2016-04-02T07:46:32.359Z,90
2016-04-02T07:47:32.394Z,90
2016-04-02T07:48:32.381Z,95
2016-04-02T07:49:32.383Z,95
2016-04-02T07:50:32.403Z,95
2016-04-02T07:51:32.405Z,100
2016-04-02T07:52:32.423Z,100
2016-04-02T07:53:32.411Z,100
2016-04-02T07:54:32.413Z,105
2016-04-02T07:55:32.431Z,110
2016-04-02T07:56:32.433Z,110
2016-04-02T07:57:32.452Z,110
2016-04-02T07:58:32.454Z,110
2016-04-02T07:59:32.457Z,105
2016-04-02T08:00:32.460Z,110
2016-04-02T08:01:32.463Z,110
2016-04-02T08:02:32.481Z,115
2016-04-02T08:03:32.500Z,115
2016-04-02T08:04:32.486Z,110
2016-04-02T08:05:32.489Z,105
2016-04-02T08:06:32.523Z,105
2016-04-02T08:07:32.510Z,110
2016-04-02T08:08:32.512Z,115
2016-04-02T08:09:32.531Z,125
2016-04-02T08:10:32.534Z,130
2016-04-02T08:11:32.536Z,125
2016-04-02T08:12:32.554Z,120
2016-04-02T08:13:32.542Z,115
2016-04-02T08:14:32.560Z,110
2016-04-02T08:15:32.579Z,115
2016-04-02T08:16:32.565Z,125
2016-04-02T08:17:32.584Z,130
2016-04-02T08:18:32.586Z,140
2016-04-02T08:19:32.589Z,145
2016-04-02T08:20:32.608Z,150
2016-04-02T08:21:32.626Z,150
2016-04-02T08:22:32.614Z,150
2016-04-02T08:23:32.631Z,145
2016-04-02T08:24:32.634Z,140
2016-04-02T08:25:32.636Z,135
2016-04-02T08:26:32.639Z,135
2016-04-02T08:27:32.657Z,130
2016-04-02T08:28:32.660Z,140
2016-04-02T08:29:32.663Z,225
2016-04-02T08:30:32.697Z,615
2016-04-02T08:31:32.684Z,865
2016-04-02T08:32:32.718Z,880
2016-04-02T08:33:32.689Z,915
2016-04-02T08:34:32.707Z,905
2016-04-02T08:35:32.741Z,890
2016-04-02T08:36:32.743Z,870
2016-04-02T08:37:32.731Z,840
2016-04-02T08:38:32.749Z,895
2016-04-02T08:39:32.752Z,935
2016-04-02T08:40:32.786Z,940
2016-04-02T08:41:32.790Z,950
2016-04-02T08:42:32.838Z,945
2016-04-02T08:43:32.810Z,945
2016-04-02T08:44:32.859Z,960
2016-04-02T08:45:32.831Z,930
2016-04-02T08:46:32.849Z,640
2016-04-02T08:47:32.852Z,275
2016-04-02T08:48:32.886Z,155
2016-04-02T08:49:34.936Z,155
2016-04-02T08:50:32.906Z,150
2016-04-02T08:51:32.894Z,150
2016-04-02T08:52:32.944Z,140
2016-04-02T08:53:32.914Z,140
2016-04-02T08:54:32.949Z,140
2016-04-02T08:55:32.952Z,135
2016-04-02T08:56:32.955Z,135
2016-04-02T08:57:32.989Z,135
2016-04-02T08:58:32.975Z,130
2016-04-02T08:59:33.009Z,130
2016-04-02T09:00:32.996Z,130
2016-04-02T09:01:33.046Z,130
2016-04-02T09:02:33.001Z,130
2016-04-02T09:03:33.052Z,125
2016-04-02T09:04:33.022Z,125
2016-04-02T09:05:33.025Z,125
2016-04-02T09:06:33.043Z,125
2016-04-02T09:07:33.077Z,125
2016-04-02T09:08:33.064Z,120
2016-04-02T09:09:33.067Z,120
2016-04-02T09:10:33.070Z,120
2016-04-02T09:11:33.088Z,115
2016-04-02T09:12:33.091Z,115
2016-04-02T09:13:33.109Z,115
2016-04-02T09:14:33.112Z,115
2016-04-02T09:15:33.115Z,115
2016-04-02T09:16:33.134Z,115
2016-04-02T09:17:33.137Z,115
2016-04-02T09:18:33.139Z,115
2016-04-02T09:19:33.142Z,110
2016-04-02T09:20:33.190Z,110
2016-04-02T09:21:33.178Z,110
2016-04-02T09:22:33.180Z,110
2016-04-02T09:23:33.183Z,110
2016-04-02T09:24:33.201Z,110
2016-04-02T09:25:33.220Z,110
2016-04-02T09:26:33.207Z,110
2016-04-02T09:27:33.241Z,105
2016-04-02T09:28:33.244Z,105
2016-04-02T09:29:33.246Z,105
2016-04-02T09:30:33.249Z,105
2016-04-02T09:31:33.313Z,105
2016-04-02T09:32:33.254Z,105
2016-04-02T09:33:33.319Z,105
2016-04-02T09:34:33.275Z,105
2016-04-02T09:35:33.294Z,105
2016-04-02T09:36:33.280Z,105
2016-04-02T09:37:33.315Z,105
2016-04-02T09:38:33.317Z,105
2016-04-02T09:39:33.321Z,105
2016-04-02T09:40:33.338Z,105
2016-04-02T09:41:33.310Z,105
2016-04-02T09:42:33.328Z,100
2016-04-02T09:43:33.346Z,100
2016-04-02T09:44:33.349Z,105
2016-04-02T09:45:33.367Z,105
2016-04-02T09:46:33.385Z,105
2016-04-02T09:47:33.387Z,100
2016-04-02T09:48:33.423Z,105
2016-04-02T09:49:33.393Z,85
2016-04-02T09:50:33.396Z,90
2016-04-02T09:51:33.414Z,100
2016-04-02T09:52:33.433Z,105
2016-04-02T09:53:33.420Z,105
2016-04-02T09:54:33.438Z,110
2016-04-02T09:55:33.456Z,120
2016-04-02T09:56:33.444Z,125
2016-04-02T09:57:33.478Z,115
2016-04-02T09:58:33.481Z,110
2016-04-02T09:59:33.467Z,110
2016-04-02T10:00:33.486Z,95
2016-04-02T10:01:33.488Z,105
2016-04-02T10:02:33.507Z,105
2016-04-02T10:03:33.525Z,105
2016-04-02T10:04:33.513Z,105
2016-04-02T10:05:33.391Z,105
2016-04-02T10:06:33.533Z,105
2016-04-02T10:07:33.442Z,105
2016-04-02T10:08:33.554Z,105
2016-04-02T10:09:33.557Z,100
2016-04-02T10:10:33.559Z,105
2016-04-02T10:11:33.577Z,100
2016-04-02T10:12:33.565Z,100
2016-04-02T10:13:33.583Z,100
2016-04-02T10:14:33.633Z,100
2016-04-02T10:15:33.604Z,90
2016-04-02T10:16:33.638Z,85
2016-04-02T10:17:33.609Z,95
2016-04-02T10:18:33.675Z,95
2016-04-02T10:19:33.630Z,95
2016-04-02T10:20:33.648Z,95
2016-04-02T10:21:33.651Z,85
2016-04-02T10:22:33.670Z,90
2016-04-02T10:23:33.657Z,85
2016-04-02T10:24:33.675Z,80
2016-04-02T10:25:33.522Z,90
2016-04-02T10:26:33.680Z,90
2016-04-02T10:27:33.714Z,90
2016-04-02T10:28:33.702Z,90
2016-04-02T10:29:33.720Z,90
2016-04-02T10:30:33.708Z,90
2016-04-02T10:31:33.725Z,90
2016-04-02T10:32:33.744Z,90
2016-04-02T10:33:33.730Z,85
2016-04-02T10:34:33.733Z,85
2016-04-02T10:35:33.751Z,85
2016-04-02T10:36:33.754Z,85
2016-04-02T10:37:33.788Z,85
2016-04-02T10:38:33.775Z,85
2016-04-02T10:39:33.794Z,85
2016-04-02T10:40:33.796Z,85
2016-04-02T10:41:33.799Z,85
2016-04-02T10:42:33.818Z,85
2016-04-02T10:43:33.788Z,85
2016-04-02T10:44:33.823Z,85
2016-04-02T10:45:33.825Z,85
2016-04-02T10:46:33.828Z,85
2016-04-02T10:47:33.846Z,85
2016-04-02T10:48:33.849Z,85
2016-04-02T10:49:33.852Z,85
2016-04-02T10:50:33.870Z,85
2016-04-02T10:51:33.873Z,85
2016-04-02T10:52:33.906Z,85
2016-04-02T10:53:33.879Z,85
2016-04-02T10:54:33.897Z,85
2016-04-02T10:55:33.900Z,85
2016-04-02T10:56:33.918Z,80
2016-04-02T10:57:33.951Z,80
2016-04-02T10:58:33.939Z,75
2016-04-02T10:59:33.925Z,60
2016-04-02T11:00:33.975Z,65
2016-04-02T11:01:33.961Z,80
2016-04-02T11:02:33.939Z,80
2016-04-02T11:03:34.008Z,80
2016-04-02T11:04:33.937Z,80
2016-04-02T11:05:34.008Z,80
2016-04-02T11:06:33.936Z,80
2016-04-02T11:07:33.934Z,80
2016-04-02T11:08:34.011Z,80
2016-04-02T11:09:33.931Z,80
2016-04-02T11:10:33.976Z,80
2016-04-02T11:11:33.944Z,75
2016-04-02T11:12:34.023Z,75
2016-04-02T11:13:33.961Z,70
2016-04-02T11:14:33.978Z,70
2016-04-02T11:15:33.963Z,70
2016-04-02T11:16:33.964Z,70
2016-04-02T11:17:33.999Z,70
2016-04-02T11:18:33.986Z,70
2016-04-02T11:19:34.004Z,75
2016-04-02T11:20:34.021Z,75
2016-04-02T11:21:34.008Z,75
2016-04-02T11:22:34.136Z,75
2016-04-02T11:23:34.029Z,75
2016-04-02T11:24:34.032Z,75
2016-04-02T11:25:34.051Z,75
2016-04-02T11:26:34.037Z,75
2016-04-02T11:27:34.087Z,75
2016-04-02T11:28:34.089Z,75
2016-04-02T11:29:34.076Z,75
2016-04-02T11:30:34.079Z,75
2016-04-02T11:31:34.081Z,70
2016-04-02T11:32:34.116Z,60
2016-04-02T11:33:34.103Z,55
2016-04-02T11:34:34.122Z,50
2016-04-02T11:35:34.109Z,45
2016-04-02T11:36:34.127Z,45
2016-04-02T11:37:34.145Z,45
2016-04-02T11:38:34.132Z,45
2016-04-02T11:39:34.135Z,45
2016-04-02T11:40:33.996Z,45
2016-04-02T11:41:34.155Z,45
2016-04-02T11:42:34.190Z,45
2016-04-02T11:43:34.160Z,45
2016-04-02T11:44:34.196Z,45
2016-04-02T11:45:34.198Z,50
2016-04-02T11:46:34.232Z,50
2016-04-02T11:47:34.203Z,55
2016-04-02T11:48:34.206Z,55
2016-04-02T11:49:34.209Z,55
2016-04-02T11:50:34.212Z,60
2016-04-02T11:51:34.246Z,60
2016-04-02T11:52:34.232Z,60
2016-04-02T11:53:34.110Z,60
2016-04-02T11:54:34.253Z,60
2016-04-02T11:55:34.303Z,60
2016-04-02T11:56:34.258Z,60
2016-04-02T11:57:34.292Z,60
2016-04-02T11:58:34.264Z,60
2016-04-02T11:59:34.313Z,65
2016-04-02T12:00:34.301Z,70
2016-04-02T12:01:34.303Z,70
2016-04-02T12:02:34.322Z,75
2016-04-02T12:03:34.324Z,80
2016-04-02T12:04:34.327Z,75
2016-04-02T12:05:34.330Z,70
2016-04-02T12:06:34.347Z,70
2016-04-02T12:07:34.335Z,70
2016-04-02T12:08:34.384Z,70
2016-04-02T12:09:34.355Z,65
2016-04-02T12:10:34.233Z,65
2016-04-02T12:11:34.377Z,70
2016-04-02T12:12:34.380Z,75
2016-04-02T12:13:34.382Z,80
2016-04-02T12:14:34.385Z,70
2016-04-02T12:15:34.466Z,65
2016-04-02T12:16:34.390Z,65
2016-04-02T12:17:34.441Z,65
2016-04-02T12:18:34.427Z,65
2016-04-02T12:19:34.430Z,65
2016-04-02T12:20:34.432Z,65
2016-04-02T12:21:34.451Z,70
2016-04-02T12:22:34.454Z,70
2016-04-02T12:23:34.471Z,70
2016-04-02T12:24:34.459Z,75
2016-04-02T12:25:34.476Z,75
2016-04-02T12:26:34.496Z,75
2016-04-02T12:27:34.482Z,80
2016-04-02T12:28:34.532Z,80
2016-04-02T12:29:34.520Z,75
2016-04-02T12:30:34.506Z,75
2016-04-02T12:31:34.540Z,75
2016-04-02T12:32:34.527Z,75
2016-04-02T12:33:34.530Z,70
2016-04-02T12:34:34.532Z,70
2016-04-02T12:35:34.550Z,70
2016-04-02T12:36:34.553Z,70
2016-04-02T12:37:34.556Z,70
2016-04-02T12:38:34.559Z,70
2016-04-02T12:39:34.593Z,70
2016-04-02T12:40:34.580Z,70
2016-04-02T12:41:34.598Z,65
2016-04-02T12:42:34.602Z,65
2016-04-02T12:43:34.619Z,65
2016-04-02T12:44:34.607Z,65
2016-04-02T12:45:34.641Z,65
2016-04-02T12:46:34.643Z,60
2016-04-02T12:47:34.646Z,60
2016-04-02T12:48:34.664Z,60
2016-04-02T12:49:34.651Z,60
2016-04-02T12:50:34.669Z,60
2016-04-02T12:51:34.656Z,60
2016-04-02T12:52:34.691Z,60
2016-04-02T12:53:34.677Z,60
2016-04-02T12:54:34.696Z,60
2016-04-02T12:55:34.683Z,60
2016-04-02T12:56:34.701Z,65
2016-04-02T12:57:34.704Z,65
2016-04-02T12:58:34.722Z,60
2016-04-02T12:59:34.725Z,65
2016-04-02T13:00:34.727Z,60
2016-04-02T13:01:34.745Z,60
2016-04-02T13:02:34.733Z,65
2016-04-02T13:03:34.767Z,65
2016-04-02T13:04:34.754Z,60
2016-04-02T13:05:34.756Z,60
2016-04-02T13:06:34.775Z,60
2016-04-02T13:07:34.793Z,60
2016-04-02T13:08:34.811Z,60
2016-04-02T13:09:34.783Z,60
2016-04-02T13:10:34.802Z,65
2016-04-02T13:11:34.805Z,65
2016-04-02T13:12:34.822Z,65
2016-04-02T13:13:34.841Z,65
2016-04-02T13:14:34.827Z,60
2016-04-02T13:15:34.877Z,60
2016-04-02T13:16:34.832Z,60
2016-04-02T13:17:34.866Z,60
2016-04-02T13:18:34.854Z,60
2016-04-02T13:19:34.841Z,60
2016-04-02T13:20:34.860Z,60
2016-04-02T13:21:34.893Z,60
2016-04-02T13:22:34.880Z,60
2016-04-02T13:23:34.898Z,60
2016-04-02T13:24:34.901Z,60
2016-04-02T13:25:34.919Z,60
2016-04-02T13:26:34.906Z,60
2016-04-02T13:27:34.925Z,60
2016-04-02T13:28:34.787Z,60
2016-04-02T13:29:34.931Z,60
2016-04-02T13:30:34.949Z,60
2016-04-02T13:31:34.936Z,60
2016-04-02T13:32:34.970Z,60
2016-04-02T13:33:34.956Z,60
2016-04-02T13:34:34.959Z,60
2016-04-02T13:35:34.994Z,60
2016-04-02T13:36:34.997Z,60
2016-04-02T13:37:34.984Z,60
2016-04-02T13:38:35.002Z,60
2016-04-02T13:39:35.005Z,60
2016-04-02T13:40:35.022Z,60
2016-04-02T13:41:35.025Z,60
2016-04-02T13:42:35.027Z,60
2016-04-02T13:43:35.030Z,60
2016-04-02T13:44:35.033Z,60
2016-04-02T13:45:35.036Z,60
2016-04-02T13:46:35.055Z,60
2016-04-02T13:47:35.088Z,60
2016-04-02T13:48:35.060Z,60
2016-04-02T13:49:35.077Z,60
2016-04-02T13:50:35.049Z,55
2016-04-02T13:51:35.098Z,55
2016-04-02T13:52:35.085Z,55
2016-04-02T13:53:35.120Z,55
2016-04-02T13:54:35.107Z,55
2016-04-02T13:55:35.110Z,55
2016-04-02T13:56:35.128Z,55
2016-04-02T13:57:35.146Z,55
2016-04-02T13:58:35.133Z,55
2016-04-02T13:59:35.167Z,55
2016-04-02T14:00:35.154Z,55
2016-04-02T14:01:35.811Z,55
2016-04-02T14:02:35.015Z,55
2016-04-02T14:03:35.174Z,55
2016-04-02T14:04:35.219Z,55
2016-04-02T14:05:35.179Z,55
2016-04-02T14:06:35.197Z,55
2016-04-02T14:07:35.200Z,55
2016-04-02T14:08:35.186Z,55
2016-04-02T14:09:35.220Z,55
2016-04-02T14:10:35.223Z,50
2016-04-02T14:11:35.226Z,50
2016-04-02T14:12:35.229Z,50
2016-04-02T14:13:35.247Z,50
2016-04-02T14:14:35.250Z,50
2016-04-02T14:15:35.252Z,50
2016-04-02T14:16:35.255Z,50
2016-04-02T14:17:35.273Z,50
2016-04-02T14:18:35.276Z,50
2016-04-02T14:19:35.279Z,50
2016-04-02T14:20:35.282Z,50
2016-04-02T14:21:35.285Z,50
2016-04-02T14:22:35.302Z,50